Time;durP1;ratioP1;P1;durP2;ratioP2;P2;SDS_P1;SDS_P2;PMS_P1;PMS_P2;Temp;Humidity;BMP_temperature;BMP_pressure;BME280_temperature;BME280_humidity;BME280_pressure;Samples;Min_cycle;Max_cycle;Signal;HPM_P1;HPM_P2
2024/01/12 00:01:46;;;;;;;65.75;41.95;;;;;;;;;;5012265;28;20657;-78
2024/01/12 00:04:15;;;;;;;85.88;47.45;;;;;;;;;;5012995;28;20232;-79
2024/01/12 00:06:42;;;;;;;104.05;47.22;;;;;;;;;;5012940;28;20233;-78
2024/01/12 00:09:09;;;;;;;81.95;42.15;;;;;;;;;;5013082;28;20213;-78
2024/01/12 00:11:38;;;;;;;85.55;42.17;;;;;;;;;;5012541;28;20589;-78
2024/01/12 00:14:05;;;;;;;86.60;44.10;;;;;;;;;;5012943;28;20224;-77
2024/01/12 00:16:32;;;;;;;96.25;45.42;;;;;;;;;;5012890;28;20263;-78
2024/01/12 00:18:58;;;;;;;83.60;43.70;;;;;;;;;;5012985;28;20235;-78
2024/01/12 00:21:25;;;;;;;76.53;45.95;;;;;;;;;;5012103;28;20213;-78
2024/01/12 00:23:52;;;;;;;115.68;49.03;;;;;;;;;;5012486;28;21014;-78
2024/01/12 00:26:19;;;;;;;70.82;43.83;;;;;;;;;;5013098;28;20616;-77
2024/01/12 00:28:48;;;;;;;86.60;45.67;;;;;;;;;;5012262;28;20252;-77
2024/01/12 00:31:15;;;;;;;157.20;50.28;;;;;;;;;;5011913;28;20213;-77
2024/01/12 00:33:42;;;;;;;93.97;44.80;;;;;;;;;;5012697;28;20261;-78
2024/01/12 00:36:09;;;;;;;92.25;42.90;;;;;;;;;;5012303;28;20201;-77
2024/01/12 00:38:36;;;;;;;117.85;46.05;;;;;;;;;;5012976;28;20229;-78
2024/01/12 00:41:03;;;;;;;98.88;43.97;;;;;;;;;;5012130;28;20213;-77
2024/01/12 00:43:30;;;;;;;93.28;46.60;;;;;;;;;;5012046;28;20255;-77
2024/01/12 00:45:59;;;;;;;98.05;46.40;;;;;;;;;;5012513;28;20721;-77
2024/01/12 00:48:26;;;;;;;93.38;45.83;;;;;;;;;;5012544;28;20291;-77
2024/01/12 00:50:53;;;;;;;100.35;47.95;;;;;;;;;;5012265;28;20268;-78
2024/01/12 00:53:20;;;;;;;98.97;45.17;;;;;;;;;;5012367;28;20221;-78
2024/01/12 00:55:47;;;;;;;156.38;50.60;;;;;;;;;;5012448;28;20680;-78
2024/01/12 00:58:14;;;;;;;105.47;48.17;;;;;;;;;;5012364;28;20628;-77
2024/01/12 01:00:41;;;;;;;81.22;44.13;;;;;;;;;;5011942;28;20210;-77
2024/01/12 01:03:09;;;;;;;96.03;45.22;;;;;;;;;;4998706;28;20210;-78
2024/01/12 01:05:36;;;;;;;90.85;46.10;;;;;;;;;;4992623;28;20202;-78
2024/01/12 01:08:03;;;;;;;142.10;48.95;;;;;;;;;;5012452;28;20980;-77
2024/01/12 01:10:30;;;;;;;115.47;50.63;;;;;;;;;;5015690;28;20284;-79
2024/01/12 01:12:57;;;;;;;110.75;50.92;;;;;;;;;;5015685;28;20209;-77
2024/01/12 01:15:24;;;;;;;146.80;51.53;;;;;;;;;;5016319;28;20233;-77
2024/01/12 01:17:51;;;;;;;131.20;49.60;;;;;;;;;;5015614;28;20260;-77
2024/01/12 01:20:19;;;;;;;151.45;52.28;;;;;;;;;;5016276;28;20235;-77
2024/01/12 01:22:47;;;;;;;111.75;46.88;;;;;;;;;;5015716;28;20206;-77
2024/01/12 01:25:14;;;;;;;114.00;48.97;;;;;;;;;;5016159;28;20244;-77
2024/01/12 01:27:41;;;;;;;101.85;47.65;;;;;;;;;;5015226;28;20275;-77
2024/01/12 01:30:08;;;;;;;103.07;49.30;;;;;;;;;;5017067;28;20194;-77
2024/01/12 01:32:35;;;;;;;88.38;46.15;;;;;;;;;;5014661;28;20307;-78
2024/01/12 01:35:02;;;;;;;118.38;49.00;;;;;;;;;;5015524;28;20689;-78
2024/01/12 01:37:30;;;;;;;147.20;51.33;;;;;;;;;;5015063;28;20717;-78
2024/01/12 01:39:57;;;;;;;125.40;48.97;;;;;;;;;;5015143;28;21014;-78
2024/01/12 01:42:24;;;;;;;104.25;47.15;;;;;;;;;;5014678;28;20681;-77
2024/01/12 01:44:51;;;;;;;140.70;48.08;;;;;;;;;;5015261;28;20205;-78
2024/01/12 01:47:19;;;;;;;146.13;47.97;;;;;;;;;;5015000;28;20284;-78
2024/01/12 01:49:46;;;;;;;118.50;49.30;;;;;;;;;;5009055;28;20214;-77
2024/01/12 01:52:14;;;;;;;110.25;49.00;;;;;;;;;;4994317;28;20724;-78
2024/01/12 01:54:43;;;;;;;115.88;50.20;;;;;;;;;;4995116;28;20625;-77
2024/01/12 01:57:10;;;;;;;115.90;46.80;;;;;;;;;;4995197;28;20281;-78
2024/01/12 01:59:37;;;;;;;96.82;48.45;;;;;;;;;;4994967;28;20816;-77
2024/01/12 02:02:05;;;;;;;127.93;45.67;;;;;;;;;;4995540;28;20682;-77
2024/01/12 02:04:32;;;;;;;103.25;43.97;;;;;;;;;;4995173;28;20213;-77
2024/01/12 02:06:59;;;;;;;103.45;45.75;;;;;;;;;;4995253;28;20238;-77
2024/01/12 02:09:28;;;;;;;110.30;49.05;;;;;;;;;;4994860;28;20244;-78
2024/01/12 02:11:56;;;;;;;102.05;45.05;;;;;;;;;;4994462;28;20542;-77
2024/01/12 02:14:23;;;;;;;84.25;49.00;;;;;;;;;;5025308;28;20610;-77
2024/01/12 02:16:50;;;;;;;101.32;48.08;;;;;;;;;;5034294;28;20283;-78
2024/01/12 02:19:17;;;;;;;99.25;47.85;;;;;;;;;;5034113;28;20650;-77
2024/01/12 02:21:46;;;;;;;119.82;46.42;;;;;;;;;;5032589;28;20628;-77
2024/01/12 02:24:13;;;;;;;125.97;44.83;;;;;;;;;;5034068;28;20219;-77
2024/01/12 02:26:40;;;;;;;94.30;45.67;;;;;;;;;;5034122;28;20200;-77
2024/01/12 02:29:07;;;;;;;97.60;48.63;;;;;;;;;;5034649;28;20216;-77
2024/01/12 02:31:34;;;;;;;117.93;46.42;;;;;;;;;;5033899;28;20259;-77
2024/01/12 02:34:01;;;;;;;96.15;48.25;;;;;;;;;;5033820;28;20220;-77
2024/01/12 02:36:28;;;;;;;122.78;53.78;;;;;;;;;;5033243;28;20246;-77
2024/01/12 02:38:57;;;;;;;81.55;44.95;;;;;;;;;;5033583;28;20922;-78
2024/01/12 02:41:24;;;;;;;112.60;47.38;;;;;;;;;;5032669;28;20282;-78
2024/01/12 02:43:51;;;;;;;121.18;50.58;;;;;;;;;;5033041;28;20247;-77
2024/01/12 02:46:19;;;;;;;99.15;50.65;;;;;;;;;;5033695;28;20208;-79
2024/01/12 02:48:46;;;;;;;89.75;48.72;;;;;;;;;;5033459;28;20232;-78
2024/01/12 02:51:13;;;;;;;107.00;54.60;;;;;;;;;;5032012;28;20935;-77
2024/01/12 02:53:40;;;;;;;95.47;49.58;;;;;;;;;;5031114;28;20223;-77
2024/01/12 02:56:08;;;;;;;89.72;48.78;;;;;;;;;;5013633;28;20573;-78
2024/01/12 02:58:35;;;;;;;105.25;51.15;;;;;;;;;;5013626;28;20276;-77
2024/01/12 03:01:02;;;;;;;79.10;49.13;;;;;;;;;;5013360;28;20206;-77
2024/01/12 03:03:29;;;;;;;94.47;47.00;;;;;;;;;;5013811;28;20227;-78
2024/01/12 03:05:56;;;;;;;108.68;50.00;;;;;;;;;;5013776;28;20209;-77
2024/01/12 03:08:23;;;;;;;83.15;46.75;;;;;;;;;;5013687;28;20237;-78
2024/01/12 03:10:50;;;;;;;105.32;51.95;;;;;;;;;;5013262;28;20209;-78
2024/01/12 03:13:19;;;;;;;91.25;50.42;;;;;;;;;;5013716;28;20589;-77
2024/01/12 03:15:46;;;;;;;97.20;50.80;;;;;;;;;;5012973;28;20692;-77
2024/01/12 03:18:14;;;;;;;83.25;50.65;;;;;;;;;;5013193;28;20233;-77
2024/01/12 03:20:41;;;;;;;101.30;51.10;;;;;;;;;;5011879;28;20312;-78
2024/01/12 03:23:08;;;;;;;84.85;49.58;;;;;;;;;;5013562;28;20213;-77
2024/01/12 03:25:35;;;;;;;84.30;51.95;;;;;;;;;;5012962;28;20715;-77
2024/01/12 03:28:02;;;;;;;75.68;48.92;;;;;;;;;;5031423;28;20947;-78
2024/01/12 03:30:30;;;;;;;79.05;49.40;;;;;;;;;;5014382;28;20304;-78
2024/01/12 03:32:57;;;;;;;80.75;47.17;;;;;;;;;;4993314;28;21000;-77
2024/01/12 03:35:24;;;;;;;65.28;45.72;;;;;;;;;;4992990;28;20226;-77
2024/01/12 03:37:51;;;;;;;90.30;52.13;;;;;;;;;;4993146;28;20300;-78
2024/01/12 03:40:18;;;;;;;76.35;48.03;;;;;;;;;;4992955;28;20218;-78
2024/01/12 03:42:45;;;;;;;76.93;50.83;;;;;;;;;;4991996;28;20669;-77
2024/01/12 03:45:12;;;;;;;78.88;50.92;;;;;;;;;;4992585;28;20210;-77
2024/01/12 03:47:40;;;;;;;65.18;46.85;;;;;;;;;;4992591;28;20256;-78
2024/01/12 03:50:09;;;;;;;79.90;47.75;;;;;;;;;;4993140;28;20269;-77
2024/01/12 03:52:36;;;;;;;59.60;44.95;;;;;;;;;;4992160;28;20233;-77
2024/01/12 03:55:03;;;;;;;57.22;44.17;;;;;;;;;;4992062;28;20238;-78
2024/01/12 03:57:30;;;;;;;54.00;40.85;;;;;;;;;;5014618;28;20222;-79
2024/01/12 03:59:57;;;;;;;47.85;41.13;;;;;;;;;;5012287;28;21094;-79
2024/01/12 04:02:24;;;;;;;67.80;43.28;;;;;;;;;;5011967;28;20209;-77
2024/01/12 04:04:53;;;;;;;63.53;41.65;;;;;;;;;;5012667;28;20283;-77
2024/01/12 04:07:20;;;;;;;65.75;45.55;;;;;;;;;;5011957;28;20229;-77
2024/01/12 04:09:47;;;;;;;60.92;43.05;;;;;;;;;;5012076;28;20244;-78
2024/01/12 04:12:14;;;;;;;72.55;48.53;;;;;;;;;;5012142;28;20642;-78
2024/01/12 04:14:45;;;;;;;67.40;48.28;;;;;;;;;;5012506;28;20295;-78
2024/01/12 04:17:12;;;;;;;95.40;58.88;;;;;;;;;;5012648;28;20233;-78
2024/01/12 04:19:39;;;;;;;55.35;41.92;;;;;;;;;;5012844;28;20256;-78
2024/01/12 04:22:07;;;;;;;53.08;42.35;;;;;;;;;;5012210;28;20205;-77
2024/01/12 04:24:34;;;;;;;46.13;38.47;;;;;;;;;;5012653;28;20213;-77
2024/01/12 04:27:01;;;;;;;52.30;40.97;;;;;;;;;;5012383;28;20230;-77
2024/01/12 04:29:29;;;;;;;117.20;79.82;;;;;;;;;;5012967;28;20217;-78
2024/01/12 04:31:55;;;;;;;55.97;45.03;;;;;;;;;;5012151;28;20704;-78
2024/01/12 04:34:22;;;;;;;54.75;42.30;;;;;;;;;;5012229;28;20209;-78
2024/01/12 04:36:49;;;;;;;57.15;40.17;;;;;;;;;;5011183;28;20248;-77
2024/01/12 04:39:18;;;;;;;49.90;43.00;;;;;;;;;;5012132;28;20232;-78
2024/01/12 04:41:46;;;;;;;57.15;42.47;;;;;;;;;;5012595;28;20271;-77
2024/01/12 04:44:13;;;;;;;56.38;41.47;;;;;;;;;;5016430;28;20697;-78
2024/01/12 04:46:42;;;;;;;47.90;41.00;;;;;;;;;;5015769;28;20201;-77
2024/01/12 04:49:09;;;;;;;50.15;37.70;;;;;;;;;;5015805;28;20209;-78
2024/01/12 04:51:36;;;;;;;47.45;37.97;;;;;;;;;;5015017;28;20209;-78
2024/01/12 04:54:03;;;;;;;40.58;35.72;;;;;;;;;;5015608;28;20218;-78
2024/01/12 04:56:31;;;;;;;45.75;36.00;;;;;;;;;;5015511;28;20271;-78
2024/01/12 04:58:58;;;;;;;50.20;37.72;;;;;;;;;;5015441;28;20248;-78
2024/01/12 05:01:25;;;;;;;44.75;38.70;;;;;;;;;;5014940;28;20260;-78
2024/01/12 05:03:52;;;;;;;53.03;37.75;;;;;;;;;;5000410;28;20240;-78
2024/01/12 05:06:19;;;;;;;55.65;39.13;;;;;;;;;;5015217;28;20186;-77
2024/01/12 05:08:46;;;;;;;42.88;37.92;;;;;;;;;;5015217;28;20771;-78
2024/01/12 05:11:14;;;;;;;41.50;34.30;;;;;;;;;;5015351;28;20244;-77
2024/01/12 05:13:42;;;;;;;39.35;35.05;;;;;;;;;;5016179;28;20214;-78
2024/01/12 05:16:09;;;;;;;47.53;38.15;;;;;;;;;;5015126;28;20697;-78
2024/01/12 05:18:36;;;;;;;42.45;33.97;;;;;;;;;;5015140;28;20256;-77
2024/01/12 05:21:03;;;;;;;50.88;36.42;;;;;;;;;;5014848;28;20307;-77
2024/01/12 05:23:30;;;;;;;48.20;36.40;;;;;;;;;;5015385;28;20565;-77
2024/01/12 05:25:57;;;;;;;45.83;35.10;;;;;;;;;;5015339;28;20209;-78
2024/01/12 05:28:24;;;;;;;41.65;34.97;;;;;;;;;;5014851;28;20225;-77
2024/01/12 05:30:53;;;;;;;44.05;35.47;;;;;;;;;;5014925;28;20755;-77
2024/01/12 05:33:19;;;;;;;46.85;34.08;;;;;;;;;;5015046;28;20210;-78
2024/01/12 05:35:47;;;;;;;43.65;35.75;;;;;;;;;;5015475;28;20229;-77
2024/01/12 05:38:13;;;;;;;45.38;35.30;;;;;;;;;;5014902;28;20237;-78
2024/01/12 05:40:40;;;;;;;53.70;36.22;;;;;;;;;;5013862;28;20259;-78
2024/01/12 05:43:07;;;;;;;46.05;33.67;;;;;;;;;;5015141;28;20584;-77
2024/01/12 05:45:34;;;;;;;44.80;36.58;;;;;;;;;;5015739;28;20198;-77
2024/01/12 05:48:03;;;;;;;43.83;35.88;;;;;;;;;;5014646;28;20229;-78
2024/01/12 05:50:30;;;;;;;49.22;36.13;;;;;;;;;;5014971;28;20275;-78
2024/01/12 05:52:57;;;;;;;59.90;39.45;;;;;;;;;;5014991;28;20743;-78
2024/01/12 05:55:24;;;;;;;56.65;37.15;;;;;;;;;;5015551;28;20336;-78
2024/01/12 05:57:51;;;;;;;51.00;36.47;;;;;;;;;;5004126;28;20234;-78
2024/01/12 06:00:18;;;;;;;51.97;36.80;;;;;;;;;;4995361;28;20233;-78
2024/01/12 06:02:45;;;;;;;56.88;38.70;;;;;;;;;;4995345;28;20632;-77
2024/01/12 06:05:13;;;;;;;53.45;38.03;;;;;;;;;;4994589;28;20272;-77
2024/01/12 06:07:40;;;;;;;45.42;34.10;;;;;;;;;;4994942;28;20246;-78
2024/01/12 06:10:08;;;;;;;51.97;35.97;;;;;;;;;;4994389;28;20210;-77
2024/01/12 06:12:35;;;;;;;48.28;35.22;;;;;;;;;;4993921;28;20245;-77
2024/01/12 06:15:02;;;;;;;47.33;34.70;;;;;;;;;;4994464;28;20214;-78
2024/01/12 06:17:29;;;;;;;40.83;33.60;;;;;;;;;;4993772;28;20595;-77
2024/01/12 06:19:56;;;;;;;78.72;45.53;;;;;;;;;;4994840;28;20206;-77
2024/01/12 06:22:25;;;;;;;51.35;37.78;;;;;;;;;;4993606;28;20210;-77
2024/01/12 06:24:52;;;;;;;90.75;45.35;;;;;;;;;;4994971;28;20221;-78
2024/01/12 06:27:19;;;;;;;58.47;37.38;;;;;;;;;;4994032;28;20230;-78
2024/01/12 06:29:46;;;;;;;54.03;38.95;;;;;;;;;;4994077;28;20215;-77
2024/01/12 06:32:13;;;;;;;67.10;42.55;;;;;;;;;;4993766;28;20272;-77
2024/01/12 06:34:40;;;;;;;70.97;53.17;;;;;;;;;;4994579;28;20245;-78
2024/01/12 06:37:07;;;;;;;44.55;37.90;;;;;;;;;;4994391;28;20244;-78
2024/01/12 06:39:35;;;;;;;42.83;35.80;;;;;;;;;;4994190;28;20663;-78
2024/01/12 06:42:02;;;;;;;39.65;35.08;;;;;;;;;;4993715;28;20217;-77
2024/01/12 06:44:29;;;;;;;39.65;32.30;;;;;;;;;;5017064;28;20208;-77
2024/01/12 06:46:56;;;;;;;38.90;32.90;;;;;;;;;;5014446;28;20256;-78
2024/01/12 06:49:23;;;;;;;38.80;31.42;;;;;;;;;;5014203;28;20209;-78
2024/01/12 06:51:50;;;;;;;34.70;30.48;;;;;;;;;;5013347;28;20256;-77
2024/01/12 06:54:17;;;;;;;34.78;28.75;;;;;;;;;;5014019;28;20251;-78
2024/01/12 06:56:46;;;;;;;38.90;32.95;;;;;;;;;;5013185;28;20229;-78
2024/01/12 06:59:13;;;;;;;39.03;31.02;;;;;;;;;;5013718;28;20217;-78
2024/01/12 07:01:40;;;;;;;34.65;30.88;;;;;;;;;;5011899;28;20209;-77
2024/01/12 07:04:07;;;;;;;40.80;32.08;;;;;;;;;;4995799;28;20214;-78
2024/01/12 07:06:34;;;;;;;42.20;32.38;;;;;;;;;;4993708;28;20209;-79
2024/01/12 07:09:01;;;;;;;43.28;32.22;;;;;;;;;;4993965;28;20214;-78
2024/01/12 07:11:28;;;;;;;37.58;33.10;;;;;;;;;;4992922;28;20205;-77
2024/01/12 07:13:56;;;;;;;45.10;34.10;;;;;;;;;;4994178;28;20237;-77
2024/01/12 07:16:23;;;;;;;50.05;34.17;;;;;;;;;;4993550;28;20230;-79
2024/01/12 07:18:50;;;;;;;36.72;31.33;;;;;;;;;;4993344;28;20749;-77
2024/01/12 07:21:17;;;;;;;49.60;34.10;;;;;;;;;;4993782;28;20225;-78
2024/01/12 07:23:44;;;;;;;36.30;32.50;;;;;;;;;;4999575;28;20210;-77
2024/01/12 07:26:11;;;;;;;46.45;35.17;;;;;;;;;;4992430;28;20218;-77
2024/01/12 07:28:38;;;;;;;40.20;32.92;;;;;;;;;;4992832;28;20266;-77
2024/01/12 07:31:06;;;;;;;36.00;30.98;;;;;;;;;;4992433;28;20205;-78
2024/01/12 07:33:33;;;;;;;41.55;33.10;;;;;;;;;;5006912;28;20933;-77
2024/01/12 07:36:00;;;;;;;44.20;32.72;;;;;;;;;;5011148;28;20229;-77
2024/01/12 07:38:27;;;;;;;35.65;31.77;;;;;;;;;;5007467;28;20293;-78
2024/01/12 07:40:54;;;;;;;46.05;32.97;;;;;;;;;;5013582;28;20681;-78
2024/01/12 07:43:21;;;;;;;38.80;32.53;;;;;;;;;;5005661;28;20287;-78
2024/01/12 07:45:49;;;;;;;35.50;31.08;;;;;;;;;;4995306;28;20202;-78
2024/01/12 07:48:17;;;;;;;38.85;34.38;;;;;;;;;;4994893;28;20292;-78
2024/01/12 07:50:44;;;;;;;46.83;32.92;;;;;;;;;;4994947;28;20264;-78
2024/01/12 07:53:11;;;;;;;36.45;31.48;;;;;;;;;;4997100;28;20233;-78
2024/01/12 07:55:38;;;;;;;35.50;31.30;;;;;;;;;;4998212;28;20226;-78
2024/01/12 07:58:05;;;;;;;52.33;32.80;;;;;;;;;;5008273;28;20286;-78
2024/01/12 08:00:32;;;;;;;53.20;31.45;;;;;;;;;;5011286;28;20308;-77
2024/01/12 08:02:59;;;;;;;39.28;30.50;;;;;;;;;;5012938;28;20205;-78
2024/01/12 08:05:28;;;;;;;35.50;31.35;;;;;;;;;;5029033;28;20219;-78
2024/01/12 08:07:55;;;;;;;30.63;27.67;;;;;;;;;;5000512;28;20240;-78
2024/01/12 08:10:22;;;;;;;34.92;30.98;;;;;;;;;;4995078;28;20210;-79
2024/01/12 08:12:49;;;;;;;41.92;30.75;;;;;;;;;;4989279;28;20198;-71
2024/01/12 08:17:52;;;;;;;31.95;28.33;;;;;;;;;;4998423;23;20253;-73
2024/01/12 08:20:19;;;;;;;35.28;29.88;;;;;;;;;;4988735;28;20308;-72
2024/01/12 08:26:06;;;;;;;34.63;31.00;;;;;;;;;;4968555;28;20197;-73
2024/01/12 08:28:33;;;;;;;38.17;34.05;;;;;;;;;;4968490;28;20308;-71
2024/01/12 08:31:00;;;;;;;32.35;29.15;;;;;;;;;;4970599;28;20218;-72
2024/01/12 08:33:27;;;;;;;33.42;29.80;;;;;;;;;;4983332;28;20213;-77
2024/01/12 08:35:54;;;;;;;32.85;27.65;;;;;;;;;;4989758;28;20230;-81
2024/01/12 08:38:21;;;;;;;32.70;29.17;;;;;;;;;;4994514;28;20238;-80
2024/01/12 08:40:48;;;;;;;33.28;29.95;;;;;;;;;;4994221;28;20210;-79
2024/01/12 08:43:17;;;;;;;32.75;29.27;;;;;;;;;;4997401;28;20213;-77
2024/01/12 08:45:44;;;;;;;27.55;25.35;;;;;;;;;;4989719;28;20246;-76
2024/01/12 08:48:10;;;;;;;29.88;27.13;;;;;;;;;;4989062;28;20226;-76
2024/01/12 08:50:38;;;;;;;34.03;30.02;;;;;;;;;;4973807;28;20658;-72
2024/01/12 08:53:05;;;;;;;30.73;27.65;;;;;;;;;;4969850;28;20717;-72
2024/01/12 08:55:32;;;;;;;28.92;26.33;;;;;;;;;;4969590;28;20546;-72
2024/01/12 08:57:59;;;;;;;32.83;29.20;;;;;;;;;;4969245;28;20235;-72
2024/01/12 09:00:28;;;;;;;32.88;29.60;;;;;;;;;;4970326;28;20218;-72
2024/01/12 09:02:55;;;;;;;31.35;28.02;;;;;;;;;;4970638;28;20290;-76
2024/01/12 09:05:22;;;;;;;32.75;28.98;;;;;;;;;;4988931;28;20207;-72
2024/01/12 09:07:49;;;;;;;30.10;27.15;;;;;;;;;;4988774;28;20289;-75
2024/01/12 09:10:16;;;;;;;31.85;29.08;;;;;;;;;;4975744;28;20211;-72
2024/01/12 09:12:43;;;;;;;30.67;28.00;;;;;;;;;;4975228;28;20572;-74
2024/01/12 09:15:11;;;;;;;26.98;24.60;;;;;;;;;;4980142;28;20212;-72
2024/01/12 09:17:40;;;;;;;29.20;26.63;;;;;;;;;;4967985;28;20242;-72
2024/01/12 09:20:07;;;;;;;29.55;26.85;;;;;;;;;;4969479;28;20310;-73
2024/01/12 09:22:34;;;;;;;33.15;30.02;;;;;;;;;;4985902;28;20206;-72
2024/01/12 09:25:01;;;;;;;28.33;25.88;;;;;;;;;;4968433;28;20895;-72
2024/01/12 09:27:28;;;;;;;32.25;28.75;;;;;;;;;;4969784;28;20203;-72
2024/01/12 09:29:55;;;;;;;35.88;29.13;;;;;;;;;;4989384;28;20214;-72
2024/01/12 09:32:22;;;;;;;30.33;27.45;;;;;;;;;;4992556;28;20268;-72
2024/01/12 09:34:51;;;;;;;31.70;28.60;;;;;;;;;;4992592;28;20212;-72
2024/01/12 09:37:18;;;;;;;31.63;28.58;;;;;;;;;;4986730;28;20231;-72
2024/01/12 09:39:45;;;;;;;38.67;30.10;;;;;;;;;;4988536;28;20284;-73
2024/01/12 09:42:13;;;;;;;24.13;22.60;;;;;;;;;;4975052;28;20663;-72
2024/01/12 09:44:42;;;;;;;30.27;27.30;;;;;;;;;;4973057;28;20682;-72
2024/01/12 09:47:09;;;;;;;29.50;26.70;;;;;;;;;;4972317;28;20677;-72
2024/01/12 09:49:36;;;;;;;32.45;28.63;;;;;;;;;;4991630;28;20346;-73
2024/01/12 09:52:07;;;;;;;35.33;29.23;;;;;;;;;;4991672;28;20218;-72
2024/01/12 09:54:34;;;;;;;34.50;30.27;;;;;;;;;;4992107;28;20612;-72
2024/01/12 09:57:02;;;;;;;32.38;28.92;;;;;;;;;;4991708;28;20234;-72
2024/01/12 09:59:30;;;;;;;31.33;28.00;;;;;;;;;;4989758;28;20237;-72
2024/01/12 10:01:58;;;;;;;42.60;32.78;;;;;;;;;;4972300;28;20215;-73
2024/01/12 10:04:25;;;;;;;27.17;24.80;;;;;;;;;;4972347;28;20207;-72
2024/01/12 10:06:52;;;;;;;41.60;32.17;;;;;;;;;;4971778;28;20721;-73
2024/01/12 10:09:24;;;;;;;42.90;31.75;;;;;;;;;;4985048;28;20230;-72
2024/01/12 10:11:53;;;;;;;36.00;32.40;;;;;;;;;;4990000;28;20254;-72
2024/01/12 10:14:21;;;;;;;32.67;29.30;;;;;;;;;;4974835;28;20660;-72
2024/01/12 10:16:53;;;;;;;39.17;33.63;;;;;;;;;;4974999;28;20230;-72
2024/01/12 10:19:20;;;;;;;34.33;30.65;;;;;;;;;;4977346;28;20234;-76
2024/01/12 10:21:47;;;;;;;35.30;31.77;;;;;;;;;;4991838;28;20210;-77
2024/01/12 10:24:17;;;;;;;35.22;31.48;;;;;;;;;;4992197;28;20573;-76
2024/01/12 10:26:45;;;;;;;34.38;30.67;;;;;;;;;;4991765;28;20217;-76
2024/01/12 10:29:12;;;;;;;35.58;31.77;;;;;;;;;;4991976;28;20276;-75
2024/01/12 10:31:41;;;;;;;45.28;34.70;;;;;;;;;;4992209;28;20241;-72
2024/01/12 10:34:11;;;;;;;39.42;32.63;;;;;;;;;;4991844;28;20256;-73
2024/01/12 10:36:38;;;;;;;31.75;28.73;;;;;;;;;;4987771;28;20253;-72
2024/01/12 10:39:07;;;;;;;33.03;29.40;;;;;;;;;;4972970;28;20776;-72
2024/01/12 10:41:35;;;;;;;33.92;30.42;;;;;;;;;;4983402;28;20268;-72
2024/01/12 10:44:05;;;;;;;38.30;31.77;;;;;;;;;;4981568;28;20215;-71
2024/01/12 10:46:35;;;;;;;34.13;30.77;;;;;;;;;;4971763;28;20199;-72
2024/01/12 10:49:08;;;;;;;33.22;30.00;;;;;;;;;;4971913;28;20321;-72
2024/01/12 10:51:38;;;;;;;39.80;30.48;;;;;;;;;;4972127;28;20211;-72
2024/01/12 10:54:06;;;;;;;34.70;29.75;;;;;;;;;;4971419;28;20211;-72
2024/01/12 10:56:35;;;;;;;39.08;32.72;;;;;;;;;;4971552;28;20293;-73
2024/01/12 10:59:05;;;;;;;43.80;33.35;;;;;;;;;;4971303;28;20729;-71
2024/01/12 11:01:32;;;;;;;34.42;30.55;;;;;;;;;;4971629;28;20215;-72
2024/01/12 11:04:00;;;;;;;41.47;33.05;;;;;;;;;;4971208;28;20260;-72
2024/01/12 11:06:28;;;;;;;34.97;30.13;;;;;;;;;;4971187;28;20262;-72
2024/01/12 11:08:55;;;;;;;36.25;32.30;;;;;;;;;;4971508;28;20230;-72
2024/01/12 11:11:23;;;;;;;33.80;29.10;;;;;;;;;;4971428;28;20211;-73
2024/01/12 11:13:50;;;;;;;34.97;30.48;;;;;;;;;;4971716;28;20272;-71
2024/01/12 11:16:21;;;;;;;34.22;30.75;;;;;;;;;;4982484;28;20218;-72
2024/01/12 11:18:48;;;;;;;39.55;33.03;;;;;;;;;;4979894;28;20243;-72
2024/01/12 11:21:23;;;;;;;31.08;28.05;;;;;;;;;;4971395;28;20207;-74
2024/01/12 11:23:50;;;;;;;30.17;27.25;;;;;;;;;;4970301;28;20733;-74
2024/01/12 11:26:17;;;;;;;26.48;23.90;;;;;;;;;;4977214;28;20261;-72
2024/01/12 11:28:44;;;;;;;33.28;29.23;;;;;;;;;;4990367;28;20277;-71
2024/01/12 11:31:11;;;;;;;35.85;32.40;;;;;;;;;;4986767;28;20203;-72
2024/01/12 11:33:43;;;;;;;30.90;28.08;;;;;;;;;;4970637;28;20953;-72
2024/01/12 11:36:14;;;;;;;24.17;22.38;;;;;;;;;;4977820;28;20258;-71
2024/01/12 11:38:42;;;;;;;35.90;28.75;;;;;;;;;;4971712;28;20239;-72
2024/01/12 11:41:11;;;;;;;31.73;28.70;;;;;;;;;;4971683;28;20294;-73
2024/01/12 11:43:38;;;;;;;32.53;28.30;;;;;;;;;;4970666;28;20211;-72
2024/01/12 11:46:05;;;;;;;31.63;27.25;;;;;;;;;;4969364;28;20725;-72
2024/01/12 11:48:33;;;;;;;27.10;24.30;;;;;;;;;;4991226;28;20234;-73
2024/01/12 11:51:01;;;;;;;30.10;26.55;;;;;;;;;;4992022;28;20681;-79
2024/01/12 11:53:28;;;;;;;37.42;31.58;;;;;;;;;;4990519;28;20788;-72
2024/01/12 11:55:55;;;;;;;38.45;30.42;;;;;;;;;;4975670;28;20293;-73
2024/01/12 11:58:23;;;;;;;42.58;30.65;;;;;;;;;;4979677;28;20239;-72
2024/01/12 12:00:50;;;;;;;43.65;31.30;;;;;;;;;;4970188;28;20935;-72
2024/01/12 12:03:17;;;;;;;37.42;31.17;;;;;;;;;;4970145;28;20214;-72
2024/01/12 12:05:44;;;;;;;35.78;30.42;;;;;;;;;;4970013;28;20222;-73
2024/01/12 12:08:12;;;;;;;47.17;31.38;;;;;;;;;;4970366;28;20244;-73
2024/01/12 12:10:39;;;;;;;34.63;28.10;;;;;;;;;;4969728;28;20257;-73
2024/01/12 12:13:10;;;;;;;37.92;32.17;;;;;;;;;;4970540;28;20269;-73
2024/01/12 12:15:37;;;;;;;29.23;26.52;;;;;;;;;;4970042;28;20504;-73
2024/01/12 12:18:05;;;;;;;37.78;33.70;;;;;;;;;;4995284;28;20299;-72
2024/01/12 12:20:33;;;;;;;41.33;32.60;;;;;;;;;;4998125;28;20620;-73
2024/01/12 12:23:00;;;;;;;36.65;31.95;;;;;;;;;;4980394;28;20265;-72
2024/01/12 12:25:28;;;;;;;44.83;31.10;;;;;;;;;;4970421;28;20215;-73
2024/01/12 12:27:56;;;;;;;42.08;30.25;;;;;;;;;;4970049;28;20230;-72
2024/01/12 12:30:24;;;;;;;44.67;36.83;;;;;;;;;;4971045;28;20219;-73
2024/01/12 12:32:51;;;;;;;39.42;32.08;;;;;;;;;;4971253;28;20218;-73
2024/01/12 12:35:19;;;;;;;44.88;32.20;;;;;;;;;;4971071;28;20265;-73
2024/01/12 12:37:46;;;;;;;37.00;32.78;;;;;;;;;;4972275;28;20697;-73
2024/01/12 12:40:14;;;;;;;37.90;33.80;;;;;;;;;;4990453;28;20216;-74
2024/01/12 12:42:42;;;;;;;40.47;35.22;;;;;;;;;;4989915;28;20218;-73
2024/01/12 12:45:10;;;;;;;40.95;33.70;;;;;;;;;;4990484;28;20213;-73
2024/01/12 12:47:37;;;;;;;38.08;33.97;;;;;;;;;;4989651;28;20205;-73
2024/01/12 12:50:05;;;;;;;37.05;33.30;;;;;;;;;;4990681;28;20237;-73
2024/01/12 12:52:32;;;;;;;35.70;32.15;;;;;;;;;;4990102;28;20576;-74
2024/01/12 12:54:59;;;;;;;40.08;35.72;;;;;;;;;;4989788;28;20579;-73
2024/01/12 12:57:26;;;;;;;39.70;36.00;;;;;;;;;;4988136;28;20226;-73
2024/01/12 12:59:55;;;;;;;37.55;33.88;;;;;;;;;;4981509;28;20218;-72
2024/01/12 13:02:22;;;;;;;36.60;33.15;;;;;;;;;;4970302;28;20214;-73
2024/01/12 13:04:49;;;;;;;38.88;35.25;;;;;;;;;;4980525;28;20268;-73
2024/01/12 13:07:16;;;;;;;39.22;35.88;;;;;;;;;;4973689;28;20269;-72
2024/01/12 13:09:43;;;;;;;35.88;32.67;;;;;;;;;;4972787;28;20223;-73
2024/01/12 13:12:10;;;;;;;39.60;35.95;;;;;;;;;;4973623;28;20207;-73
2024/01/12 13:14:37;;;;;;;37.20;33.60;;;;;;;;;;4972777;28;20211;-73
2024/01/12 13:17:05;;;;;;;36.90;33.78;;;;;;;;;;4972498;28;21073;-73
2024/01/12 13:19:32;;;;;;;36.95;34.15;;;;;;;;;;4982785;28;20242;-73
2024/01/12 13:21:59;;;;;;;37.53;34.08;;;;;;;;;;4993045;28;20214;-73
2024/01/12 13:24:28;;;;;;;41.85;37.72;;;;;;;;;;4997534;28;20241;-73
2024/01/12 13:26:55;;;;;;;34.97;32.28;;;;;;;;;;4992439;28;20241;-78
2024/01/12 13:29:22;;;;;;;36.45;33.40;;;;;;;;;;4993647;28;20229;-77
2024/01/12 13:31:49;;;;;;;38.17;34.97;;;;;;;;;;4992985;28;20206;-79
2024/01/12 13:34:17;;;;;;;39.00;35.67;;;;;;;;;;4992140;28;20207;-78
2024/01/12 13:36:44;;;;;;;36.55;33.38;;;;;;;;;;4981860;28;20684;-76
2024/01/12 13:39:12;;;;;;;32.63;30.23;;;;;;;;;;4974845;28;20238;-78
2024/01/12 13:41:39;;;;;;;36.70;33.67;;;;;;;;;;4973568;28;20219;-78
2024/01/12 13:44:06;;;;;;;33.33;30.77;;;;;;;;;;4984417;28;20236;-78
2024/01/12 13:46:33;;;;;;;38.17;35.00;;;;;;;;;;5010140;28;20205;-80
2024/01/12 13:49:00;;;;;;;38.92;35.45;;;;;;;;;;5011524;28;20307;-78
2024/01/12 13:51:29;;;;;;;34.10;31.40;;;;;;;;;;4982549;28;20211;-77
2024/01/12 13:53:56;;;;;;;32.50;30.08;;;;;;;;;;4973502;28;20609;-77
2024/01/12 13:56:23;;;;;;;35.05;32.08;;;;;;;;;;4990136;28;20608;-77
2024/01/12 13:58:50;;;;;;;35.55;32.63;;;;;;;;;;4992314;28;20242;-77
2024/01/12 14:01:17;;;;;;;36.78;33.88;;;;;;;;;;4992561;28;20968;-79
2024/01/12 14:03:47;;;;;;;36.30;32.95;;;;;;;;;;4993134;28;20273;-78
2024/01/12 14:06:14;;;;;;;36.83;33.58;;;;;;;;;;4991766;28;20892;-78
2024/01/12 14:08:43;;;;;;;37.28;34.08;;;;;;;;;;4991596;28;20230;-78
2024/01/12 14:11:11;;;;;;;43.13;39.10;;;;;;;;;;4992924;28;20216;-79
2024/01/12 14:13:38;;;;;;;36.85;34.15;;;;;;;;;;4992805;28;20210;-79
2024/01/12 14:16:05;;;;;;;35.05;32.55;;;;;;;;;;4992515;28;20506;-78
2024/01/12 14:18:32;;;;;;;40.35;36.55;;;;;;;;;;4992054;28;20261;-79
2024/01/12 14:20:59;;;;;;;40.15;36.33;;;;;;;;;;4992724;28;20284;-78
2024/01/12 14:23:26;;;;;;;40.95;37.60;;;;;;;;;;4992982;28;20565;-79